Time;durP1;ratioP1;P1;durP2;ratioP2;P2;SDS_P1;SDS_P2;PMS_P1;PMS_P2;Temp;Humidity;BMP_temperature;BMP_pressure;BME280_temperature;BME280_humidity;BME280_pressure;Samples;Min_cycle;Max_cycle;Signal;HPM_P1;HPM_P2
2024/02/05 00:00:31;;;;;;;4.13;1.70;;;6.60;99.90;;;;;;5069943;28;20115;-76
2024/02/05 00:02:57;;;;;;;2.25;1.33;;;6.60;99.90;;;;;;5073426;28;20020;-77
2024/02/05 00:05:22;;;;;;;3.28;1.45;;;6.60;99.90;;;;;;5068444;28;20028;-76
2024/02/05 00:07:48;;;;;;;3.45;1.55;;;6.60;99.90;;;;;;5071073;28;20023;-77
2024/02/05 00:10:14;;;;;;;1.25;1.10;;;6.60;99.90;;;;;;5067233;28;20449;-77
2024/02/05 00:12:40;;;;;;;1.65;0.98;;;6.60;99.90;;;;;;5070500;28;20047;-75
2024/02/05 00:15:07;;;;;;;1.30;1.00;;;6.50;99.90;;;;;;5069351;28;20056;-71
2024/02/05 00:17:32;;;;;;;2.75;1.30;;;6.50;99.90;;;;;;5065798;28;20074;-77
2024/02/05 00:19:58;;;;;;;3.13;0.90;;;6.50;99.90;;;;;;5070677;28;20406;-75
2024/02/05 00:22:24;;;;;;;1.77;1.20;;;6.40;99.90;;;;;;5061464;28;20112;-74
2024/02/05 00:24:50;;;;;;;1.20;0.93;;;6.40;99.90;;;;;;5070025;28;20033;-76
2024/02/05 00:27:16;;;;;;;1.30;1.02;;;6.30;99.90;;;;;;5065656;28;20109;-75
2024/02/05 00:29:41;;;;;;;4.80;2.08;;;6.30;99.90;;;;;;5070079;28;20111;-74
2024/02/05 00:32:07;;;;;;;2.40;1.50;;;6.20;99.90;;;;;;5069949;28;20024;-72
2024/02/05 00:34:32;;;;;;;4.03;1.65;;;6.20;99.90;;;;;;5069022;28;20036;-75
2024/02/05 00:36:58;;;;;;;2.20;1.40;;;6.20;99.90;;;;;;5064511;28;20029;-76
2024/02/05 00:39:24;;;;;;;2.95;1.60;;;6.10;99.90;;;;;;5069246;28;20046;-75
2024/02/05 00:41:50;;;;;;;2.47;1.35;;;6.10;99.90;;;;;;5070528;28;20035;-76
2024/02/05 00:44:15;;;;;;;4.47;1.77;;;6.10;99.90;;;;;;5074871;28;20037;-76
2024/02/05 00:46:41;;;;;;;2.97;1.30;;;6.00;99.90;;;;;;5052650;28;20432;-76
2024/02/05 00:49:06;;;;;;;4.53;1.73;;;6.00;99.90;;;;;;5069287;28;20028;-70
2024/02/05 00:51:33;;;;;;;3.10;1.70;;;6.00;99.90;;;;;;5069766;28;20024;-74
2024/02/05 00:53:59;;;;;;;1.83;1.15;;;6.00;99.90;;;;;;5069783;28;20111;-76
2024/02/05 00:56:25;;;;;;;1.75;1.20;;;6.00;99.90;;;;;;5061975;28;20525;-76
2024/02/05 00:58:51;;;;;;;1.63;0.57;;;6.00;99.90;;;;;;5070125;28;20104;-76
2024/02/05 01:01:17;;;;;;;1.42;0.90;;;6.00;99.90;;;;;;5068081;28;20108;-75
2024/02/05 01:03:43;;;;;;;1.27;0.60;;;6.10;99.90;;;;;;5070030;28;20032;-76
2024/02/05 01:06:09;;;;;;;1.05;0.50;;;6.20;99.90;;;;;;5069543;28;20058;-76
2024/02/05 01:08:35;;;;;;;0.85;0.45;;;6.40;99.90;;;;;;5068580;28;20035;-76
2024/02/05 01:11:01;;;;;;;0.52;0.50;;;6.90;99.90;;;;;;5064451;28;20068;-76
2024/02/05 01:13:27;;;;;;;0.50;0.20;;;7.00;99.90;;;;;;5068362;28;20036;-75
2024/02/05 01:15:52;;;;;;;0.20;0.20;;;7.20;99.90;;;;;;5053631;28;20024;-76
2024/02/05 01:18:18;;;;;;;0.43;0.20;;;7.30;99.90;;;;;;5068475;28;20055;-77
2024/02/05 01:20:43;;;;;;;2.22;0.30;;;7.50;99.90;;;;;;5066574;28;20041;-76
2024/02/05 01:23:09;;;;;;;0.10;0.10;;;7.50;99.90;;;;;;5070821;28;20025;-74
2024/02/05 01:25:35;;;;;;;0.22;0.10;;;7.50;99.90;;;;;;5072896;28;20473;-76
2024/02/05 01:28:01;;;;;;;0.32;0.20;;;7.70;99.90;;;;;;5072971;28;20047;-77
2024/02/05 01:30:28;;;;;;;0.20;0.20;;;7.70;99.90;;;;;;5065561;28;20135;-75
2024/02/05 01:32:53;;;;;;;1.45;0.40;;;7.80;99.90;;;;;;5072894;28;20101;-77
2024/02/05 01:35:19;;;;;;;0.30;0.30;;;8.00;99.90;;;;;;5071972;28;20458;-78
2024/02/05 01:37:45;;;;;;;0.38;0.20;;;7.90;99.90;;;;;;5073530;28;20024;-77
2024/02/05 01:40:11;;;;;;;0.25;0.25;;;7.90;99.90;;;;;;5072308;28;20142;-76
2024/02/05 01:42:37;;;;;;;2.35;0.40;;;7.90;99.90;;;;;;5073468;28;20381;-78
2024/02/05 01:45:04;;;;;;;0.30;0.20;;;7.90;99.90;;;;;;5072312;28;20024;-70
2024/02/05 01:47:31;;;;;;;0.90;0.43;;;8.00;99.90;;;;;;5072795;28;20027;-75
2024/02/05 01:49:57;;;;;;;0.75;0.20;;;8.00;99.90;;;;;;5072834;28;20096;-74
2024/02/05 01:52:23;;;;;;;0.52;0.40;;;8.00;99.90;;;;;;5069595;28;20140;-79
2024/02/05 01:54:49;;;;;;;0.43;0.30;;;7.90;99.90;;;;;;5072610;28;20029;-77
2024/02/05 01:57:16;;;;;;;2.25;0.40;;;7.90;99.90;;;;;;5071983;28;20036;-73
2024/02/05 01:59:42;;;;;;;0.68;0.25;;;8.10;99.90;;;;;;5072218;28;20032;-78
2024/02/05 02:02:08;;;;;;;0.80;0.45;;;8.10;99.90;;;;;;5072355;28;20453;-74
2024/02/05 02:04:37;;;;;;;0.30;0.30;;;8.10;99.90;;;;;;5050340;28;20433;-76
2024/02/05 02:07:04;;;;;;;0.50;0.20;;;8.10;99.90;;;;;;5072810;28;20079;-72
2024/02/05 02:09:30;;;;;;;0.57;0.38;;;8.10;99.90;;;;;;5071784;28;20461;-77
2024/02/05 02:11:56;;;;;;;0.95;0.40;;;8.10;99.90;;;;;;5065891;28;20024;-76
2024/02/05 02:14:22;;;;;;;1.40;0.40;;;8.10;99.90;;;;;;5063167;28;20063;-77
2024/02/05 02:16:49;;;;;;;2.28;0.30;;;8.10;99.90;;;;;;5067070;28;20454;-77
2024/02/05 02:19:45;;;;;;;0.50;0.40;;;8.10;99.90;;;;;;5064490;28;20025;-73
2024/02/05 02:22:32;;;;;;;3.03;0.50;;;8.00;99.90;;;;;;5071057;28;20078;-76
2024/02/05 02:24:58;;;;;;;3.28;0.40;;;8.00;99.90;;;;;;5072005;28;20024;-78
2024/02/05 02:27:24;;;;;;;0.98;0.43;;;7.90;99.90;;;;;;5065159;28;20118;-78
2024/02/05 02:29:50;;;;;;;1.00;0.20;;;8.00;99.90;;;;;;5071640;28;20028;-78
2024/02/05 02:32:22;;;;;;;1.20;0.22;;;8.00;99.90;;;;;;5071973;28;20035;-77
2024/02/05 02:34:52;;;;;;;0.98;0.25;;;7.90;99.90;;;;;;5070366;28;20479;-77
2024/02/05 02:37:21;;;;;;;0.32;0.20;;;7.90;99.90;;;;;;5071226;28;20063;-77
2024/02/05 02:39:57;;;;;;;1.40;0.50;;;7.90;99.90;;;;;;5071861;28;20020;-77
2024/02/05 02:42:25;;;;;;;1.05;0.40;;;7.90;99.90;;;;;;5075158;28;20096;-76
2024/02/05 02:44:52;;;;;;;1.15;0.40;;;7.80;99.90;;;;;;5072899;28;20023;-76
2024/02/05 02:47:18;;;;;;;0.85;0.40;;;7.80;99.90;;;;;;5070979;28;20036;-76
2024/02/05 02:49:43;;;;;;;1.17;0.47;;;7.90;99.90;;;;;;5077037;28;20384;-77
2024/02/05 02:52:09;;;;;;;5.18;0.38;;;7.90;99.90;;;;;;5075453;28;20468;-76
2024/02/05 02:54:34;;;;;;;1.38;0.40;;;7.80;99.90;;;;;;5079180;28;20064;-77
2024/02/05 02:57:00;;;;;;;2.30;0.40;;;7.80;99.90;;;;;;5081985;28;20048;-78
2024/02/05 02:59:25;;;;;;;1.13;0.40;;;7.80;99.90;;;;;;5078727;28;20682;-77
2024/02/05 03:01:51;;;;;;;1.85;0.20;;;7.80;99.90;;;;;;5081355;28;20035;-77
2024/02/05 03:04:17;;;;;;;1.95;0.50;;;7.80;99.90;;;;;;5082834;28;20060;-78
2024/02/05 03:06:42;;;;;;;4.00;0.38;;;7.90;99.90;;;;;;5078476;28;20088;-77
2024/02/05 03:09:08;;;;;;;1.27;0.40;;;7.80;99.90;;;;;;5078658;28;20017;-76
2024/02/05 03:11:33;;;;;;;2.35;0.30;;;7.90;99.90;;;;;;5081555;28;20493;-76
2024/02/05 03:13:59;;;;;;;0.38;0.38;;;7.90;99.90;;;;;;5078113;28;20034;-76
2024/02/05 03:16:24;;;;;;;2.45;0.40;;;7.80;99.90;;;;;;5079519;28;20284;-76
2024/02/05 03:18:50;;;;;;;0.93;0.30;;;7.80;99.90;;;;;;5082085;28;20055;-78
2024/02/05 03:21:15;;;;;;;0.73;0.30;;;7.80;99.90;;;;;;5079895;28;20050;-76
2024/02/05 03:23:42;;;;;;;1.17;0.32;;;7.80;99.90;;;;;;5080259;28;20028;-78
2024/02/05 03:26:08;;;;;;;0.93;0.40;;;7.80;99.90;;;;;;5078348;28;20028;-77
2024/02/05 03:28:34;;;;;;;0.40;0.30;;;7.70;99.90;;;;;;5079756;28;20034;-77
2024/02/05 03:31:04;;;;;;;2.72;0.85;;;7.80;99.90;;;;;;5082501;28;20457;-78
2024/02/05 03:33:29;;;;;;;2.33;0.47;;;7.80;99.90;;;;;;5076656;28;20037;-78
2024/02/05 03:35:55;;;;;;;1.00;0.35;;;7.80;99.90;;;;;;5081872;28;20529;-78
2024/02/05 03:38:20;;;;;;;1.02;0.30;;;7.80;99.90;;;;;;5079740;28;20028;-77
2024/02/05 03:40:46;;;;;;;0.15;0.15;;;7.90;99.90;;;;;;5081077;28;20107;-77
2024/02/05 03:43:12;;;;;;;1.02;0.30;;;7.80;99.90;;;;;;5080526;28;20048;-77
2024/02/05 03:45:37;;;;;;;0.95;0.28;;;7.80;99.90;;;;;;5080068;28;20027;-76
2024/02/05 03:48:03;;;;;;;1.52;0.17;;;7.80;99.90;;;;;;5079153;28;20050;-76
2024/02/05 03:50:30;;;;;;;0.20;0.20;;;7.80;99.90;;;;;;5079211;28;20021;-76
2024/02/05 03:52:56;;;;;;;0.68;0.20;;;7.80;99.90;;;;;;5083062;28;20476;-76
2024/02/05 03:55:22;;;;;;;0.85;0.38;;;7.80;99.90;;;;;;5080251;28;20137;-77
2024/02/05 03:58:04;;;;;;;1.80;0.30;;;7.80;99.90;;;;;;5082472;28;20630;-77
2024/02/05 04:00:30;;;;;;;0.68;0.40;;;7.80;99.90;;;;;;5078839;28;20069;-77
2024/02/05 04:02:56;;;;;;;0.60;0.30;;;7.90;99.90;;;;;;5080737;28;20457;-77
2024/02/05 04:05:22;;;;;;;2.95;0.47;;;7.90;99.90;;;;;;5079190;28;20020;-76
2024/02/05 04:07:47;;;;;;;0.95;0.30;;;7.90;99.90;;;;;;5080932;28;20480;-75
2024/02/05 04:10:13;;;;;;;0.32;0.20;;;7.90;99.90;;;;;;5081555;28;20032;-79
2024/02/05 04:12:39;;;;;;;0.20;0.20;;;7.90;99.90;;;;;;5077419;28;20490;-76
2024/02/05 04:15:07;;;;;;;1.20;0.20;;;7.90;99.90;;;;;;5081957;28;20158;-70
2024/02/05 04:17:33;;;;;;;0.10;0.10;;;7.90;99.90;;;;;;5080488;28;20051;-75
2024/02/05 04:19:59;;;;;;;1.75;0.40;;;7.90;99.90;;;;;;5079241;28;20461;-77
2024/02/05 04:22:24;;;;;;;0.60;0.40;;;7.90;99.90;;;;;;5077812;28;20028;-76
2024/02/05 04:24:50;;;;;;;0.30;0.25;;;7.90;99.90;;;;;;5078491;28;20077;-76
2024/02/05 04:27:15;;;;;;;0.82;0.30;;;7.90;99.90;;;;;;5080312;28;20124;-73
2024/02/05 04:29:41;;;;;;;0.65;0.30;;;8.00;99.90;;;;;;5080644;28;20027;-76
2024/02/05 04:32:08;;;;;;;0.15;0.10;;;8.00;99.90;;;;;;5081884;28;20020;-69
2024/02/05 04:34:33;;;;;;;0.52;0.20;;;8.00;99.90;;;;;;5076665;28;20035;-75
2024/02/05 04:36:59;;;;;;;1.50;0.30;;;8.00;99.90;;;;;;5081859;28;20012;-77
2024/02/05 04:39:25;;;;;;;1.23;0.30;;;8.00;99.90;;;;;;5063481;28;20166;-76
2024/02/05 04:41:50;;;;;;;1.90;0.10;;;8.10;99.90;;;;;;5062905;28;20029;-74
2024/02/05 04:44:17;;;;;;;0.45;0.10;;;8.10;99.90;;;;;;5079647;28;20036;-75
2024/02/05 04:46:43;;;;;;;1.88;0.43;;;8.00;99.90;;;;;;5078841;28;20020;-77
2024/02/05 04:49:08;;;;;;;0.63;0.47;;;8.00;99.90;;;;;;5079989;28;20494;-73
2024/02/05 04:51:34;;;;;;;0.65;0.30;;;7.90;99.90;;;;;;5082901;28;20028;-76
2024/02/05 04:53:59;;;;;;;1.20;0.63;;;7.90;99.90;;;;;;5083211;28;20028;-76
2024/02/05 04:56:25;;;;;;;0.65;0.38;;;7.90;99.90;;;;;;5083863;28;20162;-74
2024/02/05 04:58:51;;;;;;;1.60;0.60;;;7.80;99.90;;;;;;5081037;28;20095;-76
2024/02/05 05:01:17;;;;;;;1.60;0.65;;;7.80;99.90;;;;;;5082710;28;20024;-76
2024/02/05 05:03:43;;;;;;;1.30;0.50;;;7.90;99.90;;;;;;5081705;28;20082;-77
2024/02/05 05:06:08;;;;;;;1.38;0.50;;;7.80;99.90;;;;;;5083570;28;20025;-75
2024/02/05 05:08:34;;;;;;;3.35;0.93;;;7.80;99.90;;;;;;5082528;28;20025;-75
2024/02/05 05:11:00;;;;;;;3.35;0.73;;;7.80;99.90;;;;;;5086636;28;20086;-77
2024/02/05 05:13:25;;;;;;;1.08;0.70;;;7.80;99.90;;;;;;5082864;28;20036;-75
2024/02/05 05:15:51;;;;;;;2.95;1.00;;;7.70;99.90;;;;;;5082458;28;20021;-77
2024/02/05 05:18:17;;;;;;;1.50;0.70;;;7.60;99.90;;;;;;5079853;28;20078;-78
2024/02/05 05:20:43;;;;;;;4.57;1.35;;;7.50;99.90;;;;;;5067974;28;20435;-77
2024/02/05 05:23:08;;;;;;;1.17;0.65;;;7.50;99.90;;;;;;5066656;28;20032;-71
2024/02/05 05:25:35;;;;;;;1.60;0.80;;;7.50;99.90;;;;;;5073169;28;20040;-74
2024/02/05 05:28:01;;;;;;;2.25;0.70;;;7.40;99.90;;;;;;5069840;28;20068;-76
2024/02/05 05:30:27;;;;;;;2.90;0.85;;;7.40;99.90;;;;;;5066014;28;20044;-75
2024/02/05 05:32:52;;;;;;;2.00;0.88;;;7.50;99.90;;;;;;5073362;28;20032;-77
2024/02/05 05:35:18;;;;;;;1.23;0.60;;;7.50;99.90;;;;;;5070253;28;20464;-76
2024/02/05 05:37:44;;;;;;;2.22;0.65;;;7.50;99.90;;;;;;5066723;28;20032;-77
2024/02/05 05:40:10;;;;;;;1.13;0.57;;;7.50;99.90;;;;;;5060588;28;20036;-75
2024/02/05 05:42:36;;;;;;;1.55;0.70;;;7.40;99.90;;;;;;5078847;28;20024;-76
2024/02/05 05:45:03;;;;;;;2.33;0.70;;;7.40;99.90;;;;;;5072818;28;20020;-79
2024/02/05 05:47:29;;;;;;;4.05;1.23;;;7.40;99.90;;;;;;5072436;28;20101;-77
2024/02/05 05:49:54;;;;;;;1.65;0.60;;;7.40;99.90;;;;;;5072719;28;20106;-78
2024/02/05 05:52:21;;;;;;;3.15;0.70;;;7.30;99.90;;;;;;5072328;28;20025;-77
2024/02/05 05:54:47;;;;;;;2.05;0.80;;;7.40;99.90;;;;;;5061819;28;20111;-76
2024/02/05 05:57:13;;;;;;;1.48;0.77;;;7.40;99.90;;;;;;5071336;28;20103;-75
2024/02/05 05:59:39;;;;;;;2.40;1.00;;;7.30;99.90;;;;;;5081626;28;20145;-74
2024/02/05 06:02:04;;;;;;;1.50;0.70;;;7.30;99.90;;;;;;5072325;28;20127;-72
2024/02/05 06:04:30;;;;;;;1.63;0.70;;;7.30;99.90;;;;;;5077724;28;20057;-75
2024/02/05 06:06:56;;;;;;;1.00;0.30;;;7.30;99.90;;;;;;5093033;28;20064;-73
2024/02/05 06:09:21;;;;;;;1.40;0.52;;;7.30;99.90;;;;;;5090402;28;20035;-75
2024/02/05 06:11:48;;;;;;;1.48;0.60;;;7.30;99.90;;;;;;5088835;28;20009;-75
2024/02/05 06:14:13;;;;;;;1.98;0.50;;;7.30;99.90;;;;;;5061932;28;20045;-72
2024/02/05 06:16:39;;;;;;;4.88;0.60;;;7.30;99.90;;;;;;5071782;28;20484;-81
2024/02/05 06:19:05;;;;;;;0.30;0.20;;;7.30;99.90;;;;;;5071484;28;20362;-70
2024/02/05 06:21:30;;;;;;;1.17;0.40;;;7.40;99.90;;;;;;5066757;28;20033;-72
2024/02/05 06:23:56;;;;;;;0.88;0.50;;;7.40;99.90;;;;;;5071039;28;20055;-74
2024/02/05 06:26:21;;;;;;;1.08;0.43;;;7.30;99.90;;;;;;5070306;28;20451;-76
2024/02/05 06:28:48;;;;;;;1.42;0.60;;;7.30;99.90;;;;;;5070244;28;20036;-72
2024/02/05 06:31:13;;;;;;;1.17;0.30;;;7.30;99.90;;;;;;5070739;28;20051;-73
2024/02/05 06:33:39;;;;;;;0.57;0.57;;;7.30;99.90;;;;;;5070954;28;20032;-73
2024/02/05 06:36:05;;;;;;;1.25;0.57;;;7.20;99.90;;;;;;5071315;28;20100;-71
2024/02/05 06:38:31;;;;;;;3.25;1.02;;;7.20;99.90;;;;;;5070378;28;20024;-75
2024/02/05 06:40:57;;;;;;;1.83;0.60;;;7.20;99.90;;;;;;5071460;28;20473;-78
2024/02/05 06:43:23;;;;;;;2.00;0.40;;;7.20;99.90;;;;;;5072294;28;20768;-76
2024/02/05 06:45:48;;;;;;;1.08;0.60;;;7.20;99.90;;;;;;5070884;28;20484;-75
2024/02/05 06:48:14;;;;;;;1.52;0.68;;;7.20;99.90;;;;;;5070017;28;20024;-77
2024/02/05 06:50:40;;;;;;;2.70;0.47;;;7.20;99.90;;;;;;5070659;28;20113;-77
2024/02/05 06:53:06;;;;;;;0.82;0.60;;;7.20;99.90;;;;;;5070528;28;20059;-71
2024/02/05 06:55:32;;;;;;;2.38;0.60;;;7.20;99.90;;;;;;5069915;28;20024;-74
2024/02/05 06:57:57;;;;;;;1.65;0.68;;;7.20;99.90;;;;;;5059557;28;20021;-76
2024/02/05 07:00:23;;;;;;;1.67;0.70;;;7.20;99.90;;;;;;5069841;28;20036;-72
2024/02/05 07:02:52;;;;;;;1.70;0.68;;;7.20;99.90;;;;;;5069993;28;20020;-73
2024/02/05 07:05:18;;;;;;;1.73;0.82;;;7.20;99.90;;;;;;5077267;28;20020;-73
2024/02/05 07:07:44;;;;;;;1.73;1.05;;;7.20;99.90;;;;;;5060362;28;20024;-74
2024/02/05 07:10:10;;;;;;;1.95;0.90;;;7.10;99.90;;;;;;5071685;28;20128;-75
2024/02/05 07:12:35;;;;;;;3.25;1.10;;;7.10;99.90;;;;;;5071131;28;20458;-74
2024/02/05 07:15:01;;;;;;;1.67;0.50;;;7.10;99.90;;;;;;5070436;28;20037;-75
2024/02/05 07:17:34;;;;;;;1.20;0.40;;;7.10;99.90;;;;;;5068733;28;20100;-74
2024/02/05 07:20:01;;;;;;;2.20;0.60;;;7.00;99.90;;;;;;5064086;28;20020;-76
2024/02/05 07:22:30;;;;;;;0.82;0.50;;;7.00;99.90;;;;;;5069608;28;20048;-75
2024/02/05 07:24:56;;;;;;;1.80;0.40;;;6.90;99.90;;;;;;5070590;28;20025;-75
2024/02/05 07:27:23;;;;;;;0.80;0.40;;;6.90;99.90;;;;;;5065683;28;20166;-74
2024/02/05 07:29:48;;;;;;;1.05;0.63;;;6.90;99.90;;;;;;5065931;28;20078;-76
2024/02/05 07:32:14;;;;;;;1.38;0.63;;;6.90;99.90;;;;;;5070400;28;20369;-68
2024/02/05 07:34:40;;;;;;;2.47;0.60;;;6.90;99.90;;;;;;5067790;28;20519;-68
2024/02/05 07:37:06;;;;;;;1.02;0.50;;;6.90;99.90;;;;;;5063763;28;20527;-74
2024/02/05 07:39:31;;;;;;;4.70;0.60;;;6.90;99.90;;;;;;5069306;28;20033;-67
2024/02/05 07:41:57;;;;;;;5.70;1.10;;;6.90;99.90;;;;;;5071139;28;20461;-68
2024/02/05 07:44:24;;;;;;;1.77;0.65;;;7.00;99.90;;;;;;5074004;28;20029;-81
2024/02/05 07:46:49;;;;;;;0.90;0.60;;;7.10;99.90;;;;;;5070825;28;20029;-76
2024/02/05 07:49:15;;;;;;;2.05;0.40;;;7.20;99.90;;;;;;5069549;28;20074;-74
2024/02/05 07:51:45;;;;;;;1.45;0.52;;;7.30;99.90;;;;;;5068728;28;20036;-76
2024/02/05 07:54:12;;;;;;;2.47;0.80;;;7.30;99.90;;;;;;5063915;28;20170;-76
2024/02/05 07:56:37;;;;;;;1.02;0.40;;;7.40;99.90;;;;;;5070057;28;20028;-77
2024/02/05 07:59:03;;;;;;;2.78;0.52;;;7.50;99.90;;;;;;5070438;28;20036;-77
2024/02/05 08:01:32;;;;;;;3.35;0.95;;;7.50;99.90;;;;;;5064767;28;20035;-75
2024/02/05 08:03:57;;;;;;;1.05;0.55;;;7.50;99.90;;;;;;5061737;28;20480;-74
2024/02/05 08:06:23;;;;;;;0.88;0.63;;;7.60;99.90;;;;;;5069896;28;20060;-79
2024/02/05 08:08:49;;;;;;;2.47;0.65;;;7.60;99.90;;;;;;5067799;28;20043;-76
2024/02/05 08:11:19;;;;;;;2.42;0.60;;;7.70;99.90;;;;;;5064189;28;20033;-78
2024/02/05 08:13:45;;;;;;;;;;;7.80;99.90;;;;;;5071376;28;20032;-78
2024/02/05 08:16:11;;;;;;;3.33;0.90;;;7.90;99.90;;;;;;5072548;28;19905;-77
2024/02/05 08:18:37;;;;;;;0.82;0.43;;;8.00;99.90;;;;;;5068670;28;20061;-73
2024/02/05 08:21:04;;;;;;;0.57;0.40;;;8.10;99.90;;;;;;5068814;28;20103;-78
2024/02/05 08:23:29;;;;;;;2.05;0.50;;;8.20;99.90;;;;;;5070609;28;20040;-78
2024/02/05 08:25:55;;;;;;;1.58;0.60;;;8.20;99.90;;;;;;5075960;28;20043;-78
2024/02/05 08:28:20;;;;;;;1.85;0.77;;;8.20;99.90;;;;;;5073736;28;20048;-79
2024/02/05 08:30:46;;;;;;;1.77;0.50;;;8.20;99.90;;;;;;5074636;28;20020;-76
2024/02/05 08:33:13;;;;;;;2.47;0.60;;;8.20;99.90;;;;;;5072836;28;20037;-78
2024/02/05 08:35:40;;;;;;;2.22;0.57;;;8.30;99.90;;;;;;5074161;28;20016;-78
2024/02/05 08:38:06;;;;;;;3.38;0.70;;;8.20;99.90;;;;;;5073522;28;20078;-71
2024/02/05 08:40:32;;;;;;;1.30;0.65;;;8.20;99.90;;;;;;5073674;28;20106;-78
2024/02/05 08:42:57;;;;;;;1.33;0.70;;;8.30;99.90;;;;;;5083548;28;20029;-78
2024/02/05 08:45:23;;;;;;;3.95;1.30;;;8.30;99.90;;;;;;5073923;28;20028;-76
2024/02/05 08:47:52;;;;;;;2.60;1.13;;;8.30;99.90;;;;;;5073461;28;20466;-77
2024/02/05 08:50:19;;;;;;;2.35;0.77;;;8.30;99.90;;;;;;5073090;28;20024;-77
2024/02/05 08:52:46;;;;;;;0.85;0.47;;;8.30;99.90;;;;;;5075209;28;20034;-76
2024/02/05 08:55:12;;;;;;;4.13;0.68;;;8.40;99.90;;;;;;5072161;28;20386;-78
2024/02/05 08:57:39;;;;;;;3.15;0.75;;;8.40;99.90;;;;;;5069695;28;20078;-75
2024/02/05 09:00:10;;;;;;;5.03;0.63;;;8.40;99.90;;;;;;5073260;28;20036;-71
2024/02/05 09:02:36;;;;;;;;;;;8.50;99.90;;;;;;5074347;28;20020;-76
2024/02/05 09:05:01;;;;;;;4.32;0.80;;;8.40;99.90;;;;;;5073018;28;20345;-77
2024/02/05 09:07:28;;;;;;;2.13;0.68;;;8.40;99.90;;;;;;5073483;28;20039;-75
2024/02/05 09:09:54;;;;;;;3.03;0.50;;;8.50;99.90;;;;;;5073358;28;20016;-77
2024/02/05 09:12:20;;;;;;;6.88;0.50;;;8.60;99.90;;;;;;5072636;28;20528;-75
2024/02/05 09:14:45;;;;;;;2.83;0.70;;;8.60;99.90;;;;;;5072513;28;20111;-77
2024/02/05 09:17:11;;;;;;;0.50;0.40;;;8.70;99.90;;;;;;5072371;28;20024;-77
2024/02/05 09:19:37;;;;;;;2.20;0.77;;;8.70;99.90;;;;;;5064753;28;20028;-76
2024/02/05 09:22:03;;;;;;;4.68;0.63;;;8.70;99.90;;;;;;5073462;28;20028;-75
2024/02/05 09:24:28;;;;;;;0.85;0.47;;;8.60;99.90;;;;;;5067064;28;20037;-76
2024/02/05 09:26:54;;;;;;;1.77;0.63;;;8.60;99.90;;;;;;5070262;28;20044;-76
2024/02/05 09:29:21;;;;;;;1.73;0.60;;;8.70;99.90;;;;;;5071528;28;20515;-77
2024/02/05 09:31:47;;;;;;;1.50;0.70;;;8.70;99.90;;;;;;5068723;28;20465;-76
2024/02/05 09:34:14;;;;;;;2.80;0.95;;;8.60;99.90;;;;;;5079316;28;20038;-79
2024/02/05 09:36:40;;;;;;;5.60;0.55;;;8.60;99.90;;;;;;5073129;28;20116;-78
2024/02/05 09:39:05;;;;;;;1.17;0.60;;;8.60;99.90;;;;;;5071812;28;20108;-70
2024/02/05 09:41:35;;;;;;;2.45;0.90;;;8.60;99.90;;;;;;5072422;28;20025;-73
2024/02/05 09:44:02;;;;;;;1.65;0.70;;;8.60;99.90;;;;;;5079483;28;20082;-78
2024/02/05 09:46:32;;;;;;;1.45;0.57;;;8.60;99.90;;;;;;5072003;28;20116;-73
2024/02/05 09:49:02;;;;;;;1.20;0.43;;;8.70;99.90;;;;;;5072193;28;20064;-74
2024/02/05 09:51:29;;;;;;;5.57;1.00;;;8.70;99.90;;;;;;5071421;28;20501;-75
2024/02/05 09:53:56;;;;;;;2.58;0.70;;;8.80;99.90;;;;;;5072015;28;20036;-76
2024/02/05 09:56:25;;;;;;;2.20;0.63;;;8.90;99.90;;;;;;5071336;28;20047;-73
2024/02/05 09:58:51;;;;;;;5.33;0.90;;;9.00;99.90;;;;;;5074448;28;20025;-76
2024/02/05 10:01:18;;;;;;;2.22;0.85;;;9.20;99.90;;;;;;5071524;28;20086;-75
2024/02/05 10:03:49;;;;;;;3.03;0.80;;;9.30;99.90;;;;;;5071803;28;20021;-74
2024/02/05 10:06:19;;;;;;;4.28;0.90;;;9.40;99.90;;;;;;5071861;28;20021;-73
2024/02/05 10:08:47;;;;;;;1.35;0.40;;;9.40;99.90;;;;;;5072296;28;20040;-73
2024/02/05 10:11:15;;;;;;;2.90;0.90;;;9.50;99.90;;;;;;5070366;28;20036;-73
2024/02/05 10:13:40;;;;;;;2.60;0.70;;;9.60;99.90;;;;;;5071480;28;20035;-70
2024/02/05 10:16:07;;;;;;;3.17;0.60;;;9.70;99.90;;;;;;5072259;28;20028;-70
2024/02/05 10:18:32;;;;;;;3.45;0.70;;;9.70;99.90;;;;;;5071398;28;20050;-72
2024/02/05 10:21:00;;;;;;;4.68;0.95;;;9.90;99.90;;;;;;5070253;28;20946;-73
2024/02/05 10:23:26;;;;;;;3.83;0.80;;;9.90;99.90;;;;;;5069388;28;20021;-72
2024/02/05 10:25:56;;;;;;;1.80;0.88;;;10.10;99.90;;;;;;5073996;28;20033;-73
2024/02/05 10:28:21;;;;;;;3.03;0.98;;;10.10;99.90;;;;;;5070263;28;20061;-72
2024/02/05 10:30:47;;;;;;;4.25;1.65;;;10.20;99.90;;;;;;5071825;28;20036;-72
2024/02/05 10:33:16;;;;;;;3.00;0.93;;;10.30;99.90;;;;;;5069575;28;20492;-74
2024/02/05 10:35:42;;;;;;;5.57;1.17;;;10.40;99.90;;;;;;5064683;28;20020;-73
2024/02/05 10:38:12;;;;;;;6.22;1.25;;;10.50;99.90;;;;;;5067330;28;20035;-72
2024/02/05 10:40:38;;;;;;;6.90;0.98;;;10.60;99.90;;;;;;5079270;28;20024;-73
2024/02/05 10:43:04;;;;;;;4.70;0.70;;;10.70;99.90;;;;;;5080898;28;20036;-70
2024/02/05 10:45:39;;;;;;;3.83;1.05;;;10.80;99.90;;;;;;5070285;28;20033;-76
2024/02/05 10:48:06;;;;;;;4.95;0.80;;;10.80;99.90;;;;;;5070977;28;20104;-71
2024/02/05 10:50:31;;;;;;;4.90;1.00;;;10.90;99.90;;;;;;5070516;28;20362;-73
2024/02/05 10:52:58;;;;;;;6.03;1.10;;;11.00;99.90;;;;;;5071603;28;20032;-74
2024/02/05 10:55:24;;;;;;;2.38;0.85;;;11.00;99.90;;;;;;5069324;28;20029;-74
2024/02/05 10:57:53;;;;;;;5.43;1.00;;;11.10;99.90;;;;;;5071500;28;20025;-74
2024/02/05 11:00:20;;;;;;;5.25;0.60;;;11.10;99.90;;;;;;5070449;28;20112;-75
2024/02/05 11:03:04;;;;;;;3.10;0.60;;;11.20;99.90;;;;;;5071499;28;20146;-73
2024/02/05 11:05:32;;;;;;;5.78;1.05;;;11.20;99.90;;;;;;5069907;28;20028;-74
2024/02/05 11:08:19;;;;;;;3.13;0.85;;;11.30;99.90;;;;;;5071604;28;20052;-73
2024/02/05 11:10:45;;;;;;;3.15;1.00;;;11.40;99.90;;;;;;5071230;28;20056;-74
2024/02/05 11:13:34;;;;;;;0.85;0.55;;;11.30;99.90;;;;;;5069944;28;20107;-71
2024/02/05 11:16:02;;;;;;;4.23;0.83;;;11.30;99.90;;;;;;5067983;28;20028;-84
2024/02/05 11:18:37;;;;;;;2.58;0.90;;;11.30;99.90;;;;;;5070328;28;20115;-84
2024/02/05 11:21:05;;;;;;;5.07;0.90;;;11.40;99.90;;;;;;5069581;28;20386;-76
2024/02/05 11:23:34;;;;;;;4.07;1.00;;;11.40;99.90;;;;;;5069565;28;20166;-74
2024/02/05 11:26:00;;;;;;;8.70;1.20;;;11.50;99.90;;;;;;5073078;28;20073;-75
2024/02/05 11:28:27;;;;;;;2.63;0.90;;;11.40;99.90;;;;;;5069967;28;20494;-74
2024/02/05 11:31:02;;;;;;;1.83;0.68;;;11.50;99.90;;;;;;5070660;28;20032;-74
2024/02/05 11:33:33;;;;;;;4.38;1.10;;;11.60;99.90;;;;;;5068910;28;20143;-76
2024/02/05 11:35:59;;;;;;;2.63;0.85;;;11.70;99.90;;;;;;5070958;28;20031;-76
2024/02/05 11:38:25;;;;;;;5.20;1.33;;;11.70;99.90;;;;;;5069764;28;20021;-77
2024/02/05 11:40:52;;;;;;;4.53;0.98;;;11.80;99.90;;;;;;5070504;28;20438;-78
2024/02/05 11:43:25;;;;;;;3.83;0.80;;;11.80;99.90;;;;;;5077555;28;20032;-79
2024/02/05 11:45:54;;;;;;;5.85;1.40;;;11.90;99.90;;;;;;5075252;28;20485;-84
2024/02/05 11:48:20;;;;;;;3.55;1.08;;;11.90;99.90;;;;;;5068858;28;20418;-75
2024/02/05 11:50:47;;;;;;;3.67;0.90;;;12.00;99.90;;;;;;5070382;28;20028;-85
2024/02/05 11:53:14;;;;;;;6.78;1.00;;;11.90;99.90;;;;;;5068657;28;20066;-83
2024/02/05 11:55:40;;;;;;;5.03;1.17;;;12.00;99.90;;;;;;5069910;28;20016;-80
2024/02/05 11:58:06;;;;;;;5.35;1.40;;;12.00;99.90;;;;;;5070374;28;20454;-72
2024/02/05 12:00:32;;;;;;;6.05;1.20;;;12.00;99.90;;;;;;5069668;28;20070;-74
2024/02/05 12:02:58;;;;;;;4.28;1.45;;;12.00;99.90;;;;;;5070820;28;20025;-74
2024/02/05 12:05:24;;;;;;;3.97;1.15;;;12.10;99.90;;;;;;5068347;28;20032;-74
2024/02/05 12:07:50;;;;;;;2.60;1.10;;;12.10;99.90;;;;;;5065980;28;20419;-75
2024/02/05 12:10:17;;;;;;;4.80;1.45;;;12.10;99.90;;;;;;5068982;28;20027;-73
2024/02/05 12:12:43;;;;;;;5.03;1.33;;;12.20;99.90;;;;;;5070130;28;20103;-73
2024/02/05 12:15:22;;;;;;;6.85;1.25;;;12.30;99.90;;;;;;5068802;28;20166;-71
2024/02/05 12:17:58;;;;;;;4.20;1.00;;;12.30;99.90;;;;;;5064464;28;20024;-77
2024/02/05 12:20:26;;;;;;;4.32;1.20;;;12.30;99.90;;;;;;5068863;28;20044;-75
2024/02/05 12:22:51;;;;;;;3.38;1.05;;;12.30;99.90;;;;;;5068531;28;20354;-77
2024/02/05 12:25:17;;;;;;;5.72;1.25;;;12.30;99.90;;;;;;5067123;28;20035;-74
2024/02/05 12:27:43;;;;;;;7.07;1.50;;;12.30;99.90;;;;;;5073577;28;20099;-75
2024/02/05 12:30:10;;;;;;;5.00;1.10;;;12.20;99.90;;;;;;5070114;28;20074;-71
2024/02/05 12:32:35;;;;;;;10.05;1.27;;;12.30;99.90;;;;;;5070719;28;20118;-73
2024/02/05 12:35:01;;;;;;;3.90;1.42;;;12.20;99.90;;;;;;5067684;28;20060;-75
2024/02/05 12:37:28;;;;;;;3.83;1.17;;;12.20;99.90;;;;;;5070092;28;20450;-76
2024/02/05 12:39:55;;;;;;;6.78;1.13;;;12.30;99.90;;;;;;5070278;28;20031;-78
2024/02/05 12:42:24;;;;;;;3.13;1.13;;;12.30;99.90;;;;;;5076634;28;20373;-78
2024/02/05 12:44:50;;;;;;;4.32;1.95;;;12.40;99.90;;;;;;5071220;28;20055;-74
2024/02/05 12:47:19;;;;;;;6.78;0.90;;;12.40;99.90;;;;;;5069716;28;20362;-75
2024/02/05 12:49:46;;;;;;;6.38;1.27;;;12.40;99.90;;;;;;5070019;28;20028;-77
2024/02/05 12:52:12;;;;;;;11.75;1.75;;;12.40;99.90;;;;;;5070508;28;20064;-77